createdAt,value
2023-03-24T00:01:05.678Z,29.67
2023-03-24T00:03:34.391Z,34.33
2023-03-24T00:06:04.901Z,28.33
2023-03-24T00:08:37.998Z,32.45
2023-03-24T00:11:08.850Z,38.92
2023-03-24T00:13:40.629Z,33.00
2023-03-24T00:16:12.384Z,34.63
2023-03-24T00:18:41.149Z,31.08
2023-03-24T00:21:11.662Z,36.72
2023-03-24T00:23:43.708Z,34.13
2023-03-24T00:26:16.987Z,34.70
2023-03-24T00:28:48.000Z,36.75
2023-03-24T00:31:17.556Z,33.25
2023-03-24T00:33:50.906Z,33.72
2023-03-24T00:36:22.220Z,33.15
2023-03-24T00:38:50.567Z,33.22
2023-03-24T00:41:22.472Z,32.33
2023-03-24T00:43:51.093Z,35.53
2023-03-24T00:46:29.189Z,35.95
2023-03-24T00:49:07.718Z,30.35
2023-03-24T00:51:41.380Z,36.28
2023-03-24T00:54:12.733Z,32.92
2023-03-24T00:56:43.536Z,37.03
2023-03-24T00:59:14.033Z,37.88
2023-03-24T01:01:45.280Z,34.53
2023-03-24T01:04:14.133Z,41.22
2023-03-24T01:06:44.918Z,27.92
2023-03-24T01:09:13.170Z,37.20
2023-03-24T01:11:45.363Z,38.75
2023-03-24T01:14:14.540Z,34.03
2023-03-24T01:16:43.832Z,31.23
2023-03-24T01:19:12.074Z,30.30
2023-03-24T01:21:42.149Z,36.13
2023-03-24T01:24:10.775Z,37.22
2023-03-24T01:26:38.984Z,34.58
2023-03-24T01:29:08.155Z,39.42
2023-03-24T01:31:36.664Z,34.08
2023-03-24T01:34:05.437Z,34.65
2023-03-24T01:36:33.930Z,35.55
2023-03-24T01:39:02.693Z,45.10
2023-03-24T01:41:35.926Z,38.25
2023-03-24T01:44:27.314Z,36.28
2023-03-24T01:46:58.120Z,38.47
2023-03-24T01:49:37.203Z,42.13
2023-03-24T01:52:12.365Z,42.38
2023-03-24T01:54:57.827Z,39.78
2023-03-24T02:00:04.768Z,40.20
2023-03-24T02:03:14.855Z,45.47
2023-03-24T02:05:53.399Z,36.30
2023-03-24T02:08:50.807Z,44.67
2023-03-24T02:11:20.372Z,46.88
2023-03-24T02:13:53.713Z,46.67
2023-03-24T02:16:49.450Z,48.50
2023-03-24T02:19:41.074Z,45.50
2023-03-24T02:22:28.986Z,46.50
2023-03-24T02:25:28.154Z,48.17
2023-03-24T02:28:09.446Z,41.85
2023-03-24T02:30:43.012Z,47.95
2023-03-24T02:33:23.767Z,43.78
2023-03-24T02:36:29.344Z,48.60
2023-03-24T02:39:16.327Z,49.47
2023-03-24T02:41:54.409Z,48.72
2023-03-24T02:44:33.550Z,63.30
2023-03-24T02:47:24.846Z,64.82
2023-03-24T02:50:16.249Z,63.72
2023-03-24T02:52:50.273Z,65.47
2023-03-24T02:55:36.378Z,65.80
2023-03-24T02:58:35.536Z,78.70
2023-03-24T03:01:19.653Z,77.38
2023-03-24T03:04:21.151Z,70.90
2023-03-24T03:06:56.685Z,79.60
2023-03-24T03:09:27.836Z,78.45
2023-03-24T03:11:59.723Z,76.28
2023-03-24T03:14:41.660Z,69.15
2023-03-24T03:17:20.716Z,67.32
2023-03-24T03:19:56.624Z,62.08
2023-03-24T03:22:32.896Z,66.88
2023-03-24T03:25:03.455Z,67.03
2023-03-24T03:27:39.325Z,63.17
2023-03-24T03:30:23.624Z,58.72
2023-03-24T03:35:43.360Z,64.50
2023-03-24T03:38:22.596Z,65.97
2023-03-24T03:41:00.434Z,66.00
2023-03-24T03:43:35.010Z,70.15
2023-03-24T03:46:06.529Z,60.60
2023-03-24T03:48:38.961Z,63.88
2023-03-24T03:51:13.566Z,58.55
2023-03-24T03:53:51.341Z,60.03
2023-03-24T03:56:23.608Z,64.78
2023-03-24T03:59:06.364Z,63.28
2023-03-24T04:01:37.599Z,68.88
2023-03-24T04:04:48.431Z,70.28
2023-03-24T04:08:18.559Z,70.55
2023-03-24T04:11:36.763Z,65.53
2023-03-24T04:14:50.646Z,71.22
2023-03-24T04:18:05.452Z,73.72
2023-03-24T04:21:23.286Z,71.25
2023-03-24T04:24:03.432Z,82.90
2023-03-24T04:26:46.593Z,71.38
2023-03-24T04:29:42.394Z,74.47
2023-03-24T04:32:32.558Z,66.82
2023-03-24T04:35:07.325Z,75.32
2023-03-24T04:37:56.354Z,73.82
2023-03-24T04:40:33.180Z,75.82
2023-03-24T04:43:05.524Z,76.55
2023-03-24T04:45:37.394Z,72.22
2023-03-24T04:48:26.405Z,78.72
2023-03-24T04:51:17.406Z,76.55
2023-03-24T04:54:18.005Z,75.32
2023-03-24T04:56:59.256Z,75.45
2023-03-24T04:59:34.688Z,67.93
2023-03-24T05:02:04.948Z,67.72
2023-03-24T05:04:38.010Z,61.40
2023-03-24T05:07:17.397Z,68.90
2023-03-24T05:09:48.005Z,67.60
2023-03-24T05:12:16.401Z,71.57
2023-03-24T05:15:05.506Z,71.82
2023-03-24T05:17:33.903Z,71.18
2023-03-24T05:20:02.158Z,65.95
2023-03-24T05:22:30.617Z,64.63
2023-03-24T05:25:00.288Z,65.03
2023-03-24T05:27:29.154Z,64.25
2023-03-24T05:29:57.422Z,71.60
2023-03-24T05:32:28.369Z,71.82
2023-03-24T05:34:56.659Z,74.30
2023-03-24T05:37:30.746Z,66.25
2023-03-24T05:39:59.016Z,68.22
2023-03-24T05:42:37.552Z,64.90
2023-03-24T05:45:07.105Z,72.25
2023-03-24T05:47:35.370Z,60.25
2023-03-24T05:50:04.716Z,63.33
2023-03-24T05:52:34.321Z,67.65
2023-03-24T05:55:19.586Z,64.07
2023-03-24T05:58:00.275Z,70.90
2023-03-24T06:00:49.646Z,68.15
2023-03-24T06:03:34.429Z,59.03
2023-03-24T06:06:09.029Z,67.30
2023-03-24T06:08:38.374Z,65.45
2023-03-24T06:11:07.295Z,67.03
2023-03-24T06:13:45.545Z,69.32
2023-03-24T06:16:18.805Z,66.03
2023-03-24T06:18:55.418Z,71.70
2023-03-24T06:21:44.570Z,68.68
2023-03-24T06:24:14.867Z,67.72
2023-03-24T06:26:44.864Z,71.68
2023-03-24T06:29:18.242Z,59.63
2023-03-24T06:31:49.346Z,69.53
2023-03-24T06:34:18.089Z,72.75
2023-03-24T06:36:57.120Z,78.78
2023-03-24T06:39:26.375Z,74.30
2023-03-24T06:41:54.561Z,67.93
2023-03-24T06:44:22.754Z,68.78
2023-03-24T06:46:51.204Z,66.43
2023-03-24T06:49:19.525Z,67.10
2023-03-24T06:51:47.789Z,74.47
2023-03-24T06:54:20.289Z,67.10
2023-03-24T06:56:48.823Z,74.13
2023-03-24T06:59:17.965Z,75.10
2023-03-24T07:01:49.464Z,70.03
2023-03-24T07:04:28.212Z,74.15
2023-03-24T07:07:22.508Z,76.13
2023-03-24T07:09:56.756Z,72.28
2023-03-24T07:12:25.730Z,75.25
2023-03-24T07:14:55.714Z,79.68
2023-03-24T07:17:24.938Z,76.15
2023-03-24T07:20:14.225Z,75.32
2023-03-24T07:22:42.616Z,75.82
2023-03-24T07:25:29.082Z,72.75
2023-03-24T07:28:05.186Z,68.47
2023-03-24T07:30:40.641Z,72.65
2023-03-24T07:33:12.084Z,70.13
2023-03-24T07:35:43.798Z,67.82
2023-03-24T07:38:12.644Z,67.28
2023-03-24T07:40:41.403Z,76.72
2023-03-24T07:43:09.697Z,69.30
2023-03-24T07:45:56.161Z,69.60
2023-03-24T07:48:27.275Z,72.10
2023-03-24T07:50:55.973Z,71.20
2023-03-24T07:53:47.975Z,65.57
2023-03-24T07:56:26.465Z,76.18
2023-03-24T07:58:57.792Z,77.18
2023-03-24T08:01:45.016Z,75.93
2023-03-24T08:04:14.733Z,80.03
2023-03-24T08:06:49.040Z,81.53
2023-03-24T08:09:17.255Z,77.30
2023-03-24T08:11:45.627Z,79.20
2023-03-24T08:14:13.765Z,82.47
2023-03-24T08:16:42.201Z,89.70
2023-03-24T08:19:10.564Z,88.47
2023-03-24T08:21:38.760Z,89.80
2023-03-24T08:24:08.220Z,91.97
2023-03-24T08:26:36.461Z,89.82
2023-03-24T08:29:04.651Z,91.80
2023-03-24T08:31:34.990Z,88.15
2023-03-24T08:34:06.459Z,88.68
2023-03-24T08:36:35.805Z,87.72
2023-03-24T08:39:07.501Z,86.05
2023-03-24T08:41:35.852Z,87.43
2023-03-24T08:44:07.147Z,78.03
2023-03-24T08:46:36.046Z,93.75
2023-03-24T08:49:05.075Z,77.20
2023-03-24T08:51:34.809Z,73.25
2023-03-24T08:54:03.872Z,78.47
2023-03-24T08:56:32.112Z,72.50
2023-03-24T08:59:00.240Z,73.03
2023-03-24T09:01:28.477Z,69.28
2023-03-24T09:03:57.459Z,64.68
2023-03-24T09:06:27.384Z,67.57
2023-03-24T09:08:58.210Z,64.30
2023-03-24T09:11:26.651Z,63.28
2023-03-24T09:13:55.271Z,64.05
2023-03-24T09:16:23.503Z,64.57
2023-03-24T09:18:52.571Z,64.60
2023-03-24T09:21:24.567Z,59.80
2023-03-24T09:23:55.841Z,64.40
2023-03-24T09:26:24.065Z,57.35
2023-03-24T09:28:52.209Z,59.40
2023-03-24T09:31:20.524Z,57.95
2023-03-24T09:33:48.620Z,51.72
2023-03-24T09:36:16.927Z,51.15
2023-03-24T09:38:45.197Z,58.08
2023-03-24T09:41:29.046Z,51.58
2023-03-24T09:44:09.524Z,48.28
2023-03-24T09:46:43.228Z,51.30
2023-03-24T09:49:23.449Z,47.17
2023-03-24T09:52:05.369Z,47.97
2023-03-24T09:54:49.306Z,42.70
2023-03-24T09:57:45.323Z,36.70
2023-03-24T10:00:25.223Z,39.53
2023-03-24T10:02:56.913Z,34.95
2023-03-24T10:05:35.271Z,37.30
2023-03-24T10:08:35.312Z,32.40
2023-03-24T10:11:38.418Z,32.33
2023-03-24T10:14:43.359Z,30.80
2023-03-24T10:17:32.275Z,28.70
2023-03-24T10:20:17.982Z,33.88
2023-03-24T10:23:32.871Z,27.35
2023-03-24T10:26:04.671Z,29.77
2023-03-24T10:28:45.052Z,25.83
2023-03-24T10:31:16.565Z,24.63
2023-03-24T10:33:46.002Z,34.53
2023-03-24T10:36:20.477Z,20.13
2023-03-24T10:38:49.314Z,19.42
2023-03-24T10:41:26.389Z,19.60
2023-03-24T10:43:57.205Z,18.65
2023-03-24T10:46:28.308Z,14.00
2023-03-24T10:49:19.709Z,13.88
2023-03-24T10:51:50.710Z,14.25
2023-03-24T10:54:25.416Z,14.27
2023-03-24T10:57:04.668Z,8.23
2023-03-24T10:59:51.288Z,7.05
2023-03-24T11:02:23.892Z,8.23
2023-03-24T11:05:04.833Z,6.43
2023-03-24T11:08:24.577Z,9.00
2023-03-24T11:10:52.780Z,7.57
2023-03-24T11:13:33.816Z,4.03
2023-03-24T11:16:19.633Z,6.90
2023-03-24T11:19:18.652Z,10.52
2023-03-24T11:21:49.651Z,8.90
2023-03-24T11:24:20.486Z,6.30
2023-03-24T11:27:02.244Z,6.47
2023-03-24T11:29:39.480Z,5.53
2023-03-24T11:32:30.136Z,8.35
2023-03-24T11:35:07.261Z,5.80
2023-03-24T11:37:37.234Z,8.50
2023-03-24T11:40:20.101Z,5.45
2023-03-24T11:43:19.139Z,7.20
2023-03-24T11:45:58.967Z,5.65
2023-03-24T11:48:48.493Z,8.45
2023-03-24T11:51:44.903Z,10.70
2023-03-24T11:54:16.911Z,5.57
2023-03-24T11:57:15.392Z,8.27
2023-03-24T12:00:10.110Z,6.75
2023-03-24T12:02:43.552Z,7.85
2023-03-24T12:05:23.530Z,5.55
2023-03-24T12:08:23.752Z,6.22
2023-03-24T12:10:51.841Z,10.70
2023-03-24T12:13:42.986Z,10.25
2023-03-24T12:16:26.057Z,8.63
2023-03-24T12:19:16.153Z,8.20
2023-03-24T12:22:02.785Z,5.78
2023-03-24T12:24:49.736Z,8.05
2023-03-24T12:27:35.988Z,13.15
2023-03-24T12:30:30.917Z,7.07
2023-03-24T12:33:20.106Z,7.50
2023-03-24T12:36:23.182Z,4.90
2023-03-24T12:39:27.931Z,6.88
2023-03-24T12:42:13.549Z,8.18
2023-03-24T12:45:13.433Z,10.52
2023-03-24T12:47:44.317Z,5.78
2023-03-24T12:50:34.523Z,11.27
2023-03-24T12:53:24.270Z,8.57
2023-03-24T12:56:02.996Z,12.07
2023-03-24T12:58:51.702Z,7.60
2023-03-24T13:01:29.579Z,8.35
2023-03-24T13:04:12.288Z,8.98
2023-03-24T13:06:45.430Z,11.18
2023-03-24T13:09:53.327Z,8.10
2023-03-24T13:12:58.531Z,11.30
2023-03-24T13:15:41.595Z,8.95
2023-03-24T13:18:32.755Z,10.27
2023-03-24T13:21:04.492Z,8.02
2023-03-24T13:23:48.109Z,5.85
2023-03-24T13:26:42.782Z,7.20
2023-03-24T13:29:38.473Z,6.13
2023-03-24T13:32:23.570Z,9.82
2023-03-24T13:35:13.607Z,8.18
2023-03-24T13:37:46.567Z,9.75
2023-03-24T13:40:26.882Z,11.70
2023-03-24T13:43:19.532Z,11.00
2023-03-24T13:45:52.747Z,10.90
2023-03-24T13:48:43.800Z,8.98
2023-03-24T13:51:27.536Z,7.25
2023-03-24T13:54:16.469Z,15.48
2023-03-24T13:56:54.174Z,8.80
2023-03-24T13:59:29.999Z,10.38
2023-03-24T14:02:20.227Z,8.57
2023-03-24T14:05:03.920Z,9.02
2023-03-24T14:07:40.986Z,10.25
2023-03-24T14:10:15.531Z,12.48
2023-03-24T14:13:03.253Z,9.40
2023-03-24T14:15:40.824Z,8.85
2023-03-24T14:18:24.185Z,10.80
2023-03-24T14:21:00.467Z,12.43
2023-03-24T14:23:37.569Z,13.15
2023-03-24T14:26:09.063Z,11.02
2023-03-24T14:28:49.097Z,10.13
2023-03-24T14:31:26.965Z,11.07
2023-03-24T14:34:00.159Z,10.48
2023-03-24T14:36:40.857Z,12.23
2023-03-24T14:39:23.782Z,10.80
2023-03-24T14:41:52.604Z,11.35
2023-03-24T14:44:49.473Z,8.73
2023-03-24T14:47:21.656Z,10.32
2023-03-24T14:49:53.097Z,10.48
2023-03-24T14:52:43.112Z,10.15
2023-03-24T14:55:17.667Z,13.75
2023-03-24T14:57:57.543Z,12.73
2023-03-24T15:01:06.366Z,12.48
2023-03-24T15:03:57.642Z,10.32
2023-03-24T15:06:25.821Z,10.23
2023-03-24T15:08:58.368Z,7.93
2023-03-24T15:11:36.245Z,13.63
2023-03-24T15:14:19.315Z,12.43
2023-03-24T15:17:06.626Z,14.55
2023-03-24T15:19:35.637Z,9.43
2023-03-24T15:22:11.657Z,7.68
2023-03-24T15:24:42.257Z,9.52
2023-03-24T15:27:22.314Z,12.68
2023-03-24T15:29:57.613Z,11.07
2023-03-24T15:32:27.568Z,9.32
2023-03-24T15:34:59.011Z,10.38
2023-03-24T15:37:43.107Z,11.27
2023-03-24T15:40:52.332Z,14.13
2023-03-24T15:43:22.068Z,10.50
2023-03-24T15:46:08.776Z,15.32
2023-03-24T15:48:40.745Z,10.68
2023-03-24T15:51:12.451Z,8.98
2023-03-24T15:53:44.545Z,9.15
2023-03-24T15:56:12.880Z,13.00
2023-03-24T15:58:51.414Z,8.35
2023-03-24T16:01:27.399Z,22.42
2023-03-24T16:03:56.110Z,10.57
2023-03-24T16:06:36.361Z,10.15
2023-03-24T16:09:14.815Z,13.63
2023-03-24T16:11:43.509Z,9.73
2023-03-24T16:14:32.574Z,13.73
2023-03-24T16:17:03.159Z,14.60
2023-03-24T16:19:31.393Z,14.80
2023-03-24T16:21:59.849Z,9.35
2023-03-24T16:24:27.968Z,11.27
2023-03-24T16:26:56.148Z,10.75
2023-03-24T16:29:25.833Z,12.93
2023-03-24T16:31:57.205Z,14.10
2023-03-24T16:34:25.410Z,13.15
2023-03-24T16:36:54.801Z,45.50
2023-03-24T16:39:28.771Z,33.10
2023-03-24T16:41:57.360Z,27.38
2023-03-24T16:44:25.828Z,27.23
2023-03-24T16:46:55.430Z,22.85
2023-03-24T16:49:24.613Z,18.38
2023-03-24T16:51:53.788Z,12.93
2023-03-24T16:54:22.026Z,7.78
2023-03-24T16:56:50.341Z,9.65
2023-03-24T16:59:19.834Z,11.85
2023-03-24T17:01:48.070Z,13.68
2023-03-24T17:04:19.206Z,14.00
2023-03-24T17:06:52.764Z,13.93
2023-03-24T17:11:53.484Z,11.52
2023-03-24T17:14:22.028Z,11.93
2023-03-24T17:16:52.709Z,8.25
2023-03-24T17:19:23.214Z,9.40
2023-03-24T17:22:04.295Z,17.10
2023-03-24T17:24:36.761Z,14.57
2023-03-24T17:27:13.035Z,10.63
2023-03-24T17:29:41.162Z,11.85
2023-03-24T17:32:09.354Z,12.93
2023-03-24T17:34:38.002Z,10.80
2023-03-24T17:37:06.401Z,11.98
2023-03-24T17:39:34.567Z,13.02
2023-03-24T17:42:05.493Z,12.38
2023-03-24T17:44:33.993Z,11.95
2023-03-24T17:47:02.245Z,12.13
2023-03-24T17:49:30.537Z,9.63
2023-03-24T17:51:58.845Z,12.50
2023-03-24T17:54:28.099Z,7.35
2023-03-24T17:56:56.381Z,11.27
2023-03-24T17:59:25.376Z,10.93
2023-03-24T18:01:53.504Z,17.13
2023-03-24T18:04:23.828Z,12.57
2023-03-24T18:06:52.068Z,6.82
2023-03-24T18:09:21.653Z,10.32
2023-03-24T18:11:49.851Z,9.80
2023-03-24T18:14:18.032Z,11.50
2023-03-24T18:16:46.592Z,11.85
2023-03-24T18:19:16.182Z,11.85
2023-03-24T18:21:44.508Z,12.13
2023-03-24T18:24:12.726Z,13.48
2023-03-24T18:26:41.499Z,12.13
2023-03-24T18:29:10.171Z,12.88
2023-03-24T18:31:38.624Z,13.32
2023-03-24T18:34:06.855Z,13.40
2023-03-24T18:36:35.554Z,15.75
2023-03-24T18:39:07.187Z,17.95
2023-03-24T18:41:37.082Z,14.05
2023-03-24T18:44:08.277Z,13.60
2023-03-24T18:46:37.048Z,14.60
2023-03-24T18:49:06.221Z,12.55
2023-03-24T18:51:35.554Z,12.68
2023-03-24T18:54:03.753Z,13.80
2023-03-24T18:56:31.990Z,17.38
2023-03-24T18:59:00.372Z,14.48
2023-03-24T19:01:30.315Z,14.23
2023-03-24T19:03:58.637Z,10.73
2023-03-24T19:06:31.088Z,12.65
2023-03-24T19:08:59.863Z,13.80
2023-03-24T19:11:28.095Z,10.45
2023-03-24T19:13:56.817Z,14.70
2023-03-24T19:16:27.642Z,14.48
2023-03-24T19:18:57.916Z,14.02
2023-03-24T19:21:27.515Z,16.20
2023-03-24T19:23:57.032Z,8.20
2023-03-24T19:26:25.969Z,8.85
2023-03-24T19:28:54.157Z,9.73
2023-03-24T19:31:22.378Z,9.23
2023-03-24T19:33:52.191Z,12.40
2023-03-24T19:36:20.406Z,15.32
2023-03-24T19:38:48.643Z,13.93
2023-03-24T19:41:16.967Z,10.82
2023-03-24T19:43:45.374Z,11.73
2023-03-24T19:46:14.882Z,15.25
2023-03-24T19:48:42.985Z,12.90
2023-03-24T19:51:11.696Z,10.43
2023-03-24T19:53:39.824Z,12.48
2023-03-24T19:56:08.599Z,13.70
2023-03-24T19:58:36.789Z,10.88
2023-03-24T20:01:05.100Z,14.25
2023-03-24T20:03:35.597Z,10.00
2023-03-24T20:06:10.498Z,9.63
2023-03-24T20:08:39.158Z,11.60
2023-03-24T20:11:09.471Z,9.38
2023-03-24T20:13:37.930Z,10.07
2023-03-24T20:16:06.339Z,10.60
2023-03-24T20:18:35.765Z,9.70
2023-03-24T20:21:06.271Z,12.65
2023-03-24T20:23:34.531Z,12.85
2023-03-24T20:26:02.900Z,11.70
2023-03-24T20:28:31.050Z,11.43
2023-03-24T20:31:03.374Z,13.63
2023-03-24T20:33:31.900Z,12.43
2023-03-24T20:36:00.462Z,17.90
2023-03-24T20:38:28.899Z,20.75
2023-03-24T20:41:00.808Z,18.55
2023-03-24T20:43:29.849Z,19.30
2023-03-24T20:45:58.514Z,24.83
2023-03-24T20:48:26.642Z,21.25
2023-03-24T20:50:54.895Z,15.75
2023-03-24T20:53:24.895Z,18.70
2023-03-24T20:56:07.913Z,12.63
2023-03-24T20:58:38.204Z,15.13
2023-03-24T21:01:24.088Z,16.83
2023-03-24T21:03:53.559Z,11.40
2023-03-24T21:06:21.988Z,15.23
2023-03-24T21:08:50.118Z,17.50
2023-03-24T21:11:18.302Z,15.32
2023-03-24T21:13:46.515Z,16.25
2023-03-24T21:16:14.749Z,17.73
2023-03-24T21:18:45.934Z,16.75
2023-03-24T21:21:15.370Z,12.10
2023-03-24T21:23:43.713Z,23.38
2023-03-24T21:26:17.979Z,14.43
2023-03-24T21:28:46.753Z,13.55
2023-03-24T21:31:21.900Z,9.00
2023-03-24T21:33:51.125Z,11.68
2023-03-24T21:36:20.841Z,14.10
2023-03-24T21:38:49.911Z,16.75
2023-03-24T21:41:19.613Z,18.48
2023-03-24T21:43:51.136Z,15.30
2023-03-24T21:46:22.577Z,17.38
2023-03-24T21:48:52.650Z,12.38
2023-03-24T21:51:26.278Z,12.05
2023-03-24T21:53:59.450Z,11.13
2023-03-24T21:56:33.001Z,12.60
2023-03-24T21:59:01.563Z,11.57
2023-03-24T22:01:31.147Z,16.83
2023-03-24T22:03:59.634Z,15.90
2023-03-24T22:06:28.859Z,11.23
2023-03-24T22:09:06.388Z,16.15
2023-03-24T22:11:35.881Z,11.27
2023-03-24T22:14:04.445Z,11.98
2023-03-24T22:16:33.179Z,10.75
2023-03-24T22:19:01.730Z,10.73
2023-03-24T22:21:30.009Z,10.23
2023-03-24T22:23:58.104Z,9.63
2023-03-24T22:26:26.266Z,5.10
2023-03-24T22:28:56.228Z,9.00
2023-03-24T22:31:24.768Z,12.07
2023-03-24T22:33:53.758Z,7.75
2023-03-24T22:36:21.879Z,7.95
2023-03-24T22:38:50.017Z,13.02
2023-03-24T22:41:18.158Z,8.35
2023-03-24T22:43:46.435Z,8.50
2023-03-24T22:46:14.690Z,8.23
2023-03-24T22:48:43.000Z,7.10
2023-03-24T22:51:16.984Z,7.22
2023-03-24T22:53:45.514Z,9.32
2023-03-24T22:56:14.786Z,8.55
2023-03-24T22:58:43.093Z,8.20
2023-03-24T23:01:11.289Z,8.07
2023-03-24T23:03:39.391Z,9.45
2023-03-24T23:06:09.090Z,9.73
2023-03-24T23:08:40.511Z,12.45
2023-03-24T23:11:09.521Z,8.25
2023-03-24T23:13:38.775Z,6.15
2023-03-24T23:16:07.833Z,10.85
2023-03-24T23:18:36.210Z,5.90
2023-03-24T23:21:07.724Z,7.80
2023-03-24T23:23:37.561Z,6.50
2023-03-24T23:26:07.113Z,10.13
2023-03-24T23:28:36.031Z,9.48
2023-03-24T23:31:14.004Z,6.00
2023-03-24T23:33:43.236Z,8.13
2023-03-24T23:36:17.134Z,8.35
2023-03-24T23:38:52.233Z,4.22
2023-03-24T23:41:21.272Z,6.57
2023-03-24T23:43:51.779Z,6.18
2023-03-24T23:46:20.876Z,14.95
2023-03-24T23:48:49.352Z,7.13
2023-03-24T23:51:17.467Z,5.65
2023-03-24T23:53:46.110Z,5.90
2023-03-24T23:56:14.963Z,5.40
2023-03-24T23:58:43.490Z,8.35
